Time;durP1;ratioP1;P1;durP2;ratioP2;P2;SDS_P1;SDS_P2;PMS_P1;PMS_P2;Temp;Humidity;BMP_temperature;BMP_pressure;BME280_temperature;BME280_humidity;BME280_pressure;Samples;Min_cycle;Max_cycle;Signal;HPM_P1;HPM_P2
2023/08/08 00:01:42;;;;;;;5.68;3.08;;;;;;;15.30;100.00;101338.50;5113239;28;20555;-65
2023/08/08 00:04:11;;;;;;;5.93;3.13;;;;;;;15.29;100.00;101328.59;5112679;28;20126;-64
2023/08/08 00:06:38;;;;;;;7.45;3.33;;;;;;;15.28;100.00;101332.47;5113574;28;20479;-63
2023/08/08 00:09:07;;;;;;;8.52;3.13;;;;;;;15.29;100.00;101325.03;5113394;28;20047;-64
2023/08/08 00:11:34;;;;;;;6.80;3.28;;;;;;;15.26;100.00;101329.19;5113569;28;20050;-64
2023/08/08 00:14:02;;;;;;;4.43;2.78;;;;;;;15.21;100.00;101331.97;5111532;28;20517;-65
2023/08/08 00:16:30;;;;;;;8.07;2.97;;;;;;;15.20;100.00;101338.59;5113509;28;20518;-64
2023/08/08 00:18:58;;;;;;;5.68;2.80;;;;;;;15.21;100.00;101326.50;5113034;28;20065;-65
2023/08/08 00:21:26;;;;;;;6.43;2.78;;;;;;;15.21;100.00;101334.72;5113961;28;20055;-64
2023/08/08 00:23:54;;;;;;;5.70;3.13;;;;;;;15.19;100.00;101331.44;5114136;28;20506;-65
2023/08/08 00:26:21;;;;;;;6.40;3.17;;;;;;;15.20;100.00;101335.84;5110237;28;20055;-65
2023/08/08 00:28:49;;;;;;;7.32;2.67;;;;;;;15.22;100.00;101327.31;5111854;28;20044;-65
2023/08/08 00:31:19;;;;;;;6.57;2.97;;;;;;;15.20;100.00;101324.03;5078421;28;20044;-64
2023/08/08 00:33:47;;;;;;;6.85;3.47;;;;;;;15.19;100.00;101323.19;5112753;28;20040;-64
2023/08/08 00:36:15;;;;;;;7.35;2.95;;;;;;;15.19;100.00;101322.38;5112172;28;20046;-63
2023/08/08 00:38:43;;;;;;;7.90;3.17;;;;;;;15.19;100.00;101319.66;5112187;28;20048;-63
2023/08/08 00:41:10;;;;;;;5.88;2.95;;;;;;;15.17;100.00;101327.34;5111854;28;20055;-63
2023/08/08 00:43:38;;;;;;;4.40;2.60;;;;;;;15.16;100.00;101322.97;5113928;28;20054;-64
2023/08/08 00:46:06;;;;;;;7.70;2.83;;;;;;;15.17;100.00;101310.88;5111852;28;20054;-64
2023/08/08 00:48:34;;;;;;;6.43;3.20;;;;;;;15.17;100.00;101319.91;5117662;28;20073;-63
2023/08/08 00:51:02;;;;;;;6.00;3.03;;;;;;;15.17;100.00;101317.19;5115586;28;20050;-64
2023/08/08 00:53:33;;;;;;;6.40;2.95;;;;;;;15.16;100.00;101326.53;5117436;28;20047;-66
2023/08/08 00:56:01;;;;;;;6.53;3.30;;;;;;;15.14;100.00;101320.50;5116072;28;20047;-64
2023/08/08 00:58:29;;;;;;;9.10;3.00;;;;;;;15.10;100.00;101312.03;5116251;28;20498;-65
2023/08/08 01:00:59;;;;;;;7.78;3.25;;;;;;;15.11;100.00;101310.09;5115252;28;20048;-65
2023/08/08 01:03:29;;;;;;;9.27;3.30;;;;;;;15.09;100.00;101310.38;5095354;28;20431;-62
2023/08/08 01:06:03;;;;;;;5.95;3.15;;;;;;;15.09;100.00;101307.63;5115400;28;20040;-66
2023/08/08 01:08:39;;;;;;;8.77;3.28;;;;;;;15.09;100.00;101318.63;5115637;28;20059;-64
2023/08/08 01:11:08;;;;;;;9.13;3.05;;;;;;;15.07;100.00;101303.53;5095505;28;20044;-63
2023/08/08 01:13:37;;;;;;;6.95;3.05;;;;;;;15.07;100.00;101311.78;5095359;28;20055;-65
2023/08/08 01:16:06;;;;;;;7.50;3.10;;;;;;;15.08;100.00;101305.16;5103393;28;20563;-64
2023/08/08 01:18:34;;;;;;;6.38;3.22;;;;;;;15.07;100.00;101314.53;5114398;28;20055;-63
2023/08/08 01:21:03;;;;;;;6.13;2.95;;;;;;;15.07;100.00;101303.53;5098197;28;20047;-64
2023/08/08 01:23:44;;;;;;;7.38;3.00;;;;;;;15.08;100.00;101300.53;5098354;28;20058;-64
2023/08/08 01:26:12;;;;;;;8.00;3.13;;;;;;;15.08;100.00;101310.66;5081389;28;20115;-64
2023/08/08 01:28:41;;;;;;;8.80;3.30;;;;;;;15.07;100.00;101303.53;5097574;28;20039;-64
2023/08/08 01:31:09;;;;;;;9.77;3.17;;;;;;;15.07;100.00;101309.03;5097935;28;20446;-65
2023/08/08 01:33:37;;;;;;;9.63;3.30;;;;;;;15.05;100.00;101305.75;5114425;28;20051;-63
2023/08/08 01:36:19;;;;;;;7.93;3.13;;;;;;;15.03;100.00;101310.69;5114951;28;20490;-65
2023/08/08 01:38:48;;;;;;;7.03;3.30;;;;;;;15.03;100.00;101299.72;5111639;28;20054;-63
2023/08/08 01:41:18;;;;;;;10.13;3.28;;;;;;;15.03;100.00;101299.72;5081269;28;20062;-65
2023/08/08 01:43:46;;;;;;;7.85;3.28;;;;;;;15.04;100.00;101304.13;5116322;28;20559;-63
2023/08/08 01:46:14;;;;;;;10.00;3.38;;;;;;;15.03;100.00;101307.94;5114842;28;20051;-64
2023/08/08 01:48:46;;;;;;;7.50;3.35;;;;;;;15.02;100.00;101306.31;5114834;28;20048;-64
2023/08/08 01:51:14;;;;;;;9.57;3.22;;;;;;;14.99;100.00;101304.16;5097658;28;20047;-64
2023/08/08 01:53:42;;;;;;;8.25;3.20;;;;;;;14.98;100.00;101300.56;5114582;28;20537;-65
2023/08/08 01:56:10;;;;;;;8.15;3.58;;;;;;;14.99;100.00;101301.41;5098387;28;20044;-63
2023/08/08 01:58:38;;;;;;;11.18;3.70;;;;;;;14.99;100.00;101304.16;5113924;28;20051;-64
2023/08/08 02:01:05;;;;;;;7.50;3.42;;;;;;;14.97;100.00;101295.41;5114816;28;20047;-63
2023/08/08 02:03:33;;;;;;;11.52;3.70;;;;;;;14.96;100.00;101294.59;5096700;28;20044;-64
2023/08/08 02:06:01;;;;;;;8.27;3.75;;;;;;;14.96;100.00;101285.50;5114554;28;20141;-62
2023/08/08 02:08:29;;;;;;;8.98;3.60;;;;;;;14.97;100.00;101292.66;5115626;28;20127;-63
2023/08/08 02:10:57;;;;;;;7.80;3.22;;;;;;;14.97;100.00;101309.94;5115402;28;20047;-65
2023/08/08 02:13:24;;;;;;;8.10;3.50;;;;;;;14.98;100.00;101299.75;5114289;28;20513;-65
2023/08/08 02:15:53;;;;;;;10.65;3.55;;;;;;;14.97;100.00;101295.41;5114057;28;20044;-63
2023/08/08 02:18:21;;;;;;;7.30;3.53;;;;;;;14.96;100.00;101291.00;5114462;28;20047;-65
2023/08/08 02:20:48;;;;;;;9.32;4.10;;;;;;;14.97;100.00;101277.00;5115637;28;20067;-64
2023/08/08 02:23:16;;;;;;;9.07;3.35;;;;;;;14.98;100.00;101280.56;5114169;28;20054;-63
2023/08/08 02:25:44;;;;;;;7.47;3.17;;;;;;;14.98;100.00;101273.13;5114157;28;20050;-63
2023/08/08 02:28:12;;;;;;;8.00;3.72;;;;;;;14.98;100.00;101267.66;5113654;28;20488;-62
2023/08/08 02:30:39;;;;;;;8.02;3.60;;;;;;;14.98;100.00;101272.31;5114030;28;20046;-65
2023/08/08 02:33:10;;;;;;;6.93;3.92;;;;;;;14.96;100.00;101271.78;5114727;28;20407;-64
2023/08/08 02:35:38;;;;;;;10.15;3.72;;;;;;;14.94;100.00;101272.09;5114386;28;20515;-64
2023/08/08 02:38:06;;;;;;;8.00;3.50;;;;;;;14.93;100.00;101264.13;5113122;28;20035;-63
2023/08/08 02:40:33;;;;;;;9.15;3.53;;;;;;;14.91;100.00;101268.00;5130516;28;20063;-62
2023/08/08 02:43:01;;;;;;;9.75;3.70;;;;;;;14.86;100.00;101270.78;5124092;28;20165;-64
2023/08/08 02:45:29;;;;;;;8.63;3.90;;;;;;;14.85;100.00;101268.31;5097962;28;20089;-64
2023/08/08 02:47:57;;;;;;;9.73;3.78;;;;;;;14.86;100.00;101268.03;5121380;28;20095;-63
2023/08/08 02:50:25;;;;;;;11.27;4.18;;;;;;;14.84;100.00;101267.50;5125854;28;20092;-60
2023/08/08 02:52:53;;;;;;;11.63;3.60;;;;;;;14.84;100.00;101262.00;5111592;28;20075;-63
2023/08/08 02:55:24;;;;;;;10.50;3.47;;;;;;;14.83;100.00;101248.56;5129636;28;20043;-63
2023/08/08 02:57:52;;;;;;;8.23;3.60;;;;;;;14.84;100.00;101247.47;5114223;28;20526;-63
2023/08/08 03:00:20;;;;;;;14.23;4.15;;;;;;;14.83;100.00;101249.38;5096872;28;20129;-65
2023/08/08 03:02:51;;;;;;;9.75;3.45;;;;;;;14.82;100.00;101242.28;5095986;28;20495;-64
2023/08/08 03:05:19;;;;;;;14.00;4.22;;;;;;;14.83;100.00;101243.09;5101198;28;20395;-65
2023/08/08 03:07:48;;;;;;;11.38;4.30;;;;;;;14.81;100.00;101243.34;5114082;28;20047;-64
2023/08/08 03:10:17;;;;;;;7.95;3.90;;;;;;;14.82;100.00;101250.50;5113542;28;20048;-63
2023/08/08 03:12:44;;;;;;;9.68;3.65;;;;;;;14.83;100.00;101245.84;5096337;28;20398;-63
2023/08/08 03:15:12;;;;;;;11.20;4.22;;;;;;;14.83;100.00;101254.88;5114976;28;20190;-62
2023/08/08 03:17:41;;;;;;;9.48;4.13;;;;;;;14.83;100.00;101243.09;5112746;28;20484;-63
2023/08/08 03:20:10;;;;;;;10.32;3.90;;;;;;;14.81;100.00;101240.63;5096923;28;20048;-64
2023/08/08 03:22:39;;;;;;;9.85;4.40;;;;;;;14.80;100.00;101244.47;5112037;28;20406;-65
2023/08/08 03:25:08;;;;;;;15.35;4.75;;;;;;;14.79;100.00;101253.81;5112392;28;20069;-65
2023/08/08 03:27:36;;;;;;;13.68;4.30;;;;;;;14.78;100.00;101243.94;5113111;28;20047;-65
2023/08/08 03:30:05;;;;;;;10.25;4.18;;;;;;;14.75;100.00;101252.75;5096238;28;20388;-64
2023/08/08 03:32:39;;;;;;;13.02;4.90;;;;;;;14.73;100.00;101249.47;5113265;28;20063;-63
2023/08/08 03:35:09;;;;;;;13.50;4.63;;;;;;;14.73;100.00;101241.25;5113139;28;20051;-62
2023/08/08 03:37:38;;;;;;;11.18;4.45;;;;;;;14.73;100.00;101248.66;5115418;28;20036;-62
2023/08/08 03:40:07;;;;;;;11.93;4.28;;;;;;;14.73;100.00;101252.22;5095646;28;20043;-66
2023/08/08 03:42:35;;;;;;;7.22;3.97;;;;;;;14.74;100.00;101253.84;5102114;28;20044;-63
2023/08/08 03:45:03;;;;;;;9.18;4.00;;;;;;;14.73;100.00;101252.22;5115120;28;20058;-63
2023/08/08 03:47:31;;;;;;;11.65;4.75;;;;;;;14.73;100.00;101251.41;5113044;28;20039;-63
2023/08/08 03:49:59;;;;;;;12.20;4.57;;;;;;;14.71;100.00;101246.19;5116310;28;20048;-64
2023/08/08 03:52:27;;;;;;;12.32;4.60;;;;;;;14.70;100.00;101244.56;5119480;28;20048;-64
2023/08/08 03:54:55;;;;;;;16.98;5.13;;;;;;;14.67;100.00;101239.63;5114464;28;20108;-63
2023/08/08 03:57:23;;;;;;;13.35;4.90;;;;;;;14.67;100.00;101231.41;5111526;28;20419;-64
2023/08/08 03:59:51;;;;;;;10.60;4.55;;;;;;;14.67;100.00;101231.41;5095244;28;20055;-65
2023/08/08 04:02:19;;;;;;;11.70;4.40;;;;;;;14.66;100.00;101227.84;5112305;28;20047;-65
2023/08/08 04:04:48;;;;;;;13.45;4.88;;;;;;;14.66;100.00;101227.84;5112934;28;20092;-66
2023/08/08 04:07:16;;;;;;;9.35;4.45;;;;;;;14.67;100.00;101228.66;5095606;28;20053;-62
2023/08/08 04:09:43;;;;;;;15.13;5.10;;;;;;;14.66;100.00;101227.84;5112717;28;20561;-63
2023/08/08 04:12:11;;;;;;;12.57;5.25;;;;;;;14.66;100.00;101227.03;5113296;28;20447;-64
2023/08/08 04:14:39;;;;;;;14.18;4.93;;;;;;;14.63;100.00;101233.91;5096053;28;20055;-65
2023/08/08 04:17:07;;;;;;;12.43;5.20;;;;;;;14.61;100.00;101227.06;5112882;28;20051;-64
2023/08/08 04:19:34;;;;;;;16.15;5.50;;;;;;;14.63;100.00;101230.34;5113915;28;20100;-63
2023/08/08 04:22:02;;;;;;;13.35;4.70;;;;;;;14.61;100.00;101227.06;5112491;28;20039;-64
2023/08/08 04:24:30;;;;;;;14.10;5.18;;;;;;;14.60;100.00;101225.41;5117695;28;20051;-64
2023/08/08 04:26:58;;;;;;;11.13;5.40;;;;;;;14.59;100.00;101226.53;5099336;28;20058;-64
2023/08/08 04:29:25;;;;;;;11.80;5.32;;;;;;;14.57;100.00;101223.25;5117672;28;20043;-64
2023/08/08 04:31:53;;;;;;;14.07;5.03;;;;;;;14.57;100.00;101226.00;5099172;28;20372;-64
2023/08/08 04:34:21;;;;;;;11.38;4.68;;;;;;;14.57;100.00;101218.56;5116825;28;20039;-65
2023/08/08 04:36:48;;;;;;;11.85;5.15;;;;;;;14.56;100.00;101214.22;5117676;28;20050;-64
2023/08/08 04:39:16;;;;;;;10.90;5.10;;;;;;;14.56;100.00;101219.69;5117555;28;20514;-64
2023/08/08 04:41:44;;;;;;;11.52;5.10;;;;;;;14.56;100.00;101227.09;5098660;28;20385;-64
2023/08/08 04:44:12;;;;;;;11.48;5.00;;;;;;;14.55;100.00;101228.19;5115202;28;20040;-63
2023/08/08 04:46:39;;;;;;;14.10;5.10;;;;;;;14.54;100.00;101229.31;5113928;28;20522;-63
2023/08/08 04:49:07;;;;;;;16.05;5.40;;;;;;;14.55;100.00;101230.94;5117876;28;20523;-63
2023/08/08 04:51:35;;;;;;;13.77;5.13;;;;;;;14.54;100.00;101232.06;5116682;28;20395;-63
2023/08/08 04:54:03;;;;;;;12.68;5.22;;;;;;;14.55;100.00;101228.19;5115388;28;20035;-65
2023/08/08 04:56:31;;;;;;;16.63;5.60;;;;;;;14.55;100.00;101225.47;5115921;28;20055;-64
2023/08/08 04:58:58;;;;;;;17.70;5.35;;;;;;;14.56;100.00;101227.09;5098603;28;20042;-65
2023/08/08 05:01:26;;;;;;;14.40;5.00;;;;;;;14.55;100.00;101222.72;5116659;28;20069;-64
2023/08/08 05:03:55;;;;;;;16.35;6.15;;;;;;;14.54;100.00;101223.84;5115859;28;20441;-65
2023/08/08 05:06:23;;;;;;;11.32;4.45;;;;;;;14.55;100.00;101219.97;5116017;28;20046;-65
2023/08/08 05:08:53;;;;;;;17.42;5.57;;;;;;;14.53;100.00;101222.97;5115644;28;20051;-67
2023/08/08 05:11:20;;;;;;;11.68;5.03;;;;;;;14.54;100.00;101218.34;5115301;28;20510;-65
2023/08/08 05:13:48;;;;;;;13.43;5.30;;;;;;;14.55;100.00;101214.50;5116235;28;20052;-64
2023/08/08 05:16:17;;;;;;;13.00;5.53;;;;;;;14.56;100.00;101216.94;5116619;28;20404;-63
2023/08/08 05:18:45;;;;;;;14.48;5.32;;;;;;;14.57;100.00;101223.25;5115323;28;20047;-64
2023/08/08 05:21:13;;;;;;;13.10;5.45;;;;;;;14.58;100.00;101227.66;5118482;28;20051;-65
2023/08/08 05:23:42;;;;;;;11.27;4.68;;;;;;;14.58;100.00;101222.97;5118678;28;20044;-64
2023/08/08 05:26:10;;;;;;;12.45;5.00;;;;;;;14.60;100.00;101222.69;5116567;28;20055;-65
2023/08/08 05:28:38;;;;;;;13.73;5.20;;;;;;;14.59;100.00;101215.56;5114292;28;20043;-66
2023/08/08 05:31:06;;;;;;;13.07;5.07;;;;;;;14.60;100.00;101214.44;5110139;28;20395;-65
2023/08/08 05:33:33;;;;;;;15.27;5.45;;;;;;;14.57;100.00;101215.03;5116127;28;20048;-66
2023/08/08 05:36:01;;;;;;;13.35;5.10;;;;;;;14.56;100.00;101214.22;5116881;28;20052;-65
2023/08/08 05:38:29;;;;;;;15.30;5.10;;;;;;;14.56;100.00;101224.38;5114439;28;20039;-65
2023/08/08 05:40:57;;;;;;;10.55;4.25;;;;;;;14.58;100.00;101225.72;5115781;28;20043;-64
2023/08/08 05:43:24;;;;;;;12.63;4.85;;;;;;;14.61;100.00;101232.56;5116478;28;20057;-64
2023/08/08 05:45:55;;;;;;;14.07;4.10;;;;;;;14.63;100.00;101231.16;4761281;28;10000584;-66
2023/08/08 05:48:23;;;;;;;12.77;5.35;;;;;;;14.64;100.00;101231.97;5112072;28;20108;-66
2023/08/08 05:50:50;;;;;;;16.42;5.93;;;;;;;14.64;100.00;101240.19;5112580;28;20096;-66
2023/08/08 05:53:18;;;;;;;16.40;5.85;;;;;;;14.66;100.00;101227.03;5090525;28;20046;-65
2023/08/08 05:55:46;;;;;;;13.90;4.93;;;;;;;14.67;100.00;101224.00;5093701;28;20074;-66
2023/08/08 05:58:14;;;;;;;11.25;4.80;;;;;;;14.66;100.00;101222.34;5112484;28;20046;-66
2023/08/08 06:00:42;;;;;;;13.85;5.47;;;;;;;14.65;100.00;101222.66;5111010;28;20047;-65
2023/08/08 06:03:10;;;;;;;17.00;6.07;;;;;;;14.67;100.00;101234.13;5112354;28;20056;-63
2023/08/08 06:05:38;;;;;;;16.08;5.53;;;;;;;14.70;100.00;101222.63;5111431;28;20051;-65
2023/08/08 06:08:11;;;;;;;10.50;3.75;;;;;;;14.73;100.00;101227.53;5110182;28;20067;-67
2023/08/08 06:10:39;;;;;;;12.38;5.07;;;;;;;14.77;100.00;101227.75;5112286;28;20463;-65
2023/08/08 06:13:06;;;;;;;13.05;5.18;;;;;;;14.78;100.00;101230.22;5110852;28;20069;-65
2023/08/08 06:15:34;;;;;;;15.27;6.00;;;;;;;14.74;100.00;101237.38;5110511;28;20047;-65
2023/08/08 06:18:02;;;;;;;19.42;6.18;;;;;;;14.71;100.00;101235.22;5111118;28;20058;-66
2023/08/08 06:20:30;;;;;;;16.55;5.88;;;;;;;14.72;100.00;101236.88;5110593;28;20579;-65
2023/08/08 06:22:58;;;;;;;18.90;6.40;;;;;;;14.71;100.00;101240.69;5094306;28;20041;-63
2023/08/08 06:25:25;;;;;;;16.63;6.53;;;;;;;14.69;100.00;101242.91;5111917;28;20384;-65
2023/08/08 06:27:53;;;;;;;18.08;6.53;;;;;;;14.69;100.00;101248.38;5111167;28;20051;-64
2023/08/08 06:30:21;;;;;;;18.50;6.30;;;;;;;14.69;100.00;101243.72;5101055;28;20056;-65
2023/08/08 06:32:49;;;;;;;15.55;6.10;;;;;;;14.71;100.00;101257.16;5108291;28;20875;-66
2023/08/08 06:35:18;;;;;;;11.88;4.68;;;;;;;14.76;100.00;101245.34;5094954;28;20048;-65
2023/08/08 06:37:45;;;;;;;14.10;5.28;;;;;;;14.81;100.00;101250.78;5100018;28;20058;-63
2023/08/08 06:40:13;;;;;;;14.27;5.68;;;;;;;14.85;100.00;101251.84;5114478;28;20051;-67
2023/08/08 06:42:41;;;;;;;15.55;5.30;;;;;;;14.89;100.00;101258.41;5114396;28;20406;-66
2023/08/08 06:45:09;;;;;;;13.23;5.22;;;;;;;14.95;100.00;101250.94;5113796;28;20047;-66
2023/08/08 06:47:37;;;;;;;13.88;4.95;;;;;;;14.95;100.00;101261.94;5113975;28;20484;-66
2023/08/08 06:50:06;;;;;;;13.90;5.18;;;;;;;14.95;100.00;101251.75;5114537;28;20051;-66
2023/08/08 06:52:34;;;;;;;17.80;4.70;;;;;;;15.01;100.00;101256.13;5114442;28;20044;-65
2023/08/08 06:55:02;;;;;;;12.00;4.95;;;;;;;15.03;100.00;101248.44;5114992;28;20055;-65
2023/08/08 06:57:33;;;;;;;11.70;5.10;;;;;;;15.04;100.00;101251.97;5096737;28;20043;-66
2023/08/08 07:00:04;;;;;;;13.23;5.63;;;;;;;15.06;100.00;101256.06;5113620;28;20051;-66
2023/08/08 07:02:32;;;;;;;16.85;5.28;;;;;;;15.08;100.00;101251.13;5114106;28;20039;-66
2023/08/08 07:05:00;;;;;;;14.00;5.13;;;;;;;15.08;100.00;101259.34;5116029;28;20055;-64
2023/08/08 07:07:30;;;;;;;16.02;5.07;;;;;;;15.10;100.00;101259.88;5119917;28;20106;-64
2023/08/08 07:09:58;;;;;;;16.05;5.18;;;;;;;15.11;100.00;101261.50;5110162;28;20087;-61
2023/08/08 07:12:26;;;;;;;12.95;4.93;;;;;;;15.10;100.00;101259.03;5113352;28;20059;-64
2023/08/08 07:14:54;;;;;;;26.30;7.10;;;;;;;15.15;100.00;101263.69;5098473;28;20110;-67
2023/08/08 07:17:22;;;;;;;13.18;5.18;;;;;;;15.21;100.00;101263.34;5117761;28;20047;-61
2023/08/08 07:19:50;;;;;;;12.98;4.75;;;;;;;15.25;100.00;101258.94;5128465;28;20044;-63
2023/08/08 07:22:18;;;;;;;12.27;4.68;;;;;;;15.27;100.00;101262.22;5129027;28;20071;-61
2023/08/08 07:24:46;;;;;;;12.90;4.90;;;;;;;15.28;100.00;101261.09;5099263;28;20456;-65
2023/08/08 07:27:14;;;;;;;13.23;4.35;;;;;;;15.32;100.00;101253.06;5113568;28;20043;-66
2023/08/08 07:29:41;;;;;;;13.82;5.03;;;;;;;15.34;100.00;101259.94;5113878;28;20051;-66
2023/08/08 07:32:09;;;;;;;14.90;5.00;;;;;;;15.38;100.00;101260.16;5113921;28;20050;-66
2023/08/08 07:34:37;;;;;;;15.85;5.25;;;;;;;15.38;100.00;101251.94;5096333;28;20056;-66
2023/08/08 07:37:05;;;;;;;17.45;5.10;;;;;;;15.37;100.00;101264.03;5114551;28;20056;-66
2023/08/08 07:39:33;;;;;;;12.98;4.70;;;;;;;15.37;100.00;101257.69;5113775;28;20510;-66
2023/08/08 07:42:00;;;;;;;14.05;5.10;;;;;;;15.39;100.00;101250.00;5114865;28;20050;-64
2023/08/08 07:44:29;;;;;;;19.10;5.15;;;;;;;15.41;100.00;101247.78;5114778;28;20047;-65
2023/08/08 07:46:57;;;;;;;16.90;5.32;;;;;;;15.44;100.00;101252.69;5112883;28;20522;-65
2023/08/08 07:49:24;;;;;;;13.60;4.97;;;;;;;15.44;100.00;101248.03;5114527;28;20043;-66
2023/08/08 07:51:52;;;;;;;15.80;4.70;;;;;;;15.46;100.00;101250.47;5114212;28;20406;-66
2023/08/08 07:54:20;;;;;;;16.42;5.63;;;;;;;15.51;100.00;101248.50;5114251;28;20043;-66
2023/08/08 07:56:48;;;;;;;10.93;3.65;;;;;;;15.55;100.00;101254.22;5114833;28;20050;-65
2023/08/08 07:59:16;;;;;;;13.05;4.47;;;;;;;15.58;100.00;101253.63;5117146;28;20043;-65
2023/08/08 08:01:44;;;;;;;8.50;3.20;;;;;;;15.60;100.00;101253.38;5116848;28;20100;-66
2023/08/08 08:04:12;;;;;;;8.48;3.35;;;;;;;15.63;100.00;101247.28;5118547;28;20404;-65
2023/08/08 08:06:39;;;;;;;10.60;3.30;;;;;;;15.67;100.00;101251.09;5118115;28;20072;-66
2023/08/08 08:09:09;;;;;;;9.73;3.53;;;;;;;15.72;100.00;101243.63;5118191;28;20079;-66
2023/08/08 08:11:37;;;;;;;16.80;3.95;;;;;;;15.81;100.00;101245.75;5119438;28;20442;-65
2023/08/08 08:14:05;;;;;;;7.68;2.80;;;;;;;15.81;100.00;101246.56;5118270;28;20050;-65
2023/08/08 08:16:32;;;;;;;10.48;3.67;;;;;;;15.83;100.00;101254.53;5118287;28;20050;-64
2023/08/08 08:19:00;;;;;;;7.93;3.28;;;;;;;15.85;100.00;101247.63;5097817;28;20430;-66
2023/08/08 08:21:28;;;;;;;10.52;3.55;;;;;;;15.87;100.00;101250.06;5111667;28;20449;-66
2023/08/08 08:23:56;;;;;;;11.05;3.85;;;;;;;15.87;100.00;101250.88;5095330;28;20044;-66
2023/08/08 08:26:24;;;;;;;8.90;3.33;;;;;;;15.88;100.00;101251.72;5110380;28;20050;-66
2023/08/08 08:28:52;;;;;;;7.57;2.88;;;;;;;15.84;100.00;101250.66;5116457;28;20054;-66
2023/08/08 08:31:19;;;;;;;9.40;2.75;;;;;;;15.85;100.00;101250.38;5098549;28;20051;-68
2023/08/08 08:33:47;;;;;;;8.23;3.22;;;;;;;15.85;100.00;101246.78;5116001;28;20048;-66
2023/08/08 08:36:17;;;;;;;10.10;2.83;;;;;;;15.89;100.00;101247.84;5099346;28;20059;-66
2023/08/08 08:38:46;;;;;;;8.05;2.53;;;;;;;15.93;100.00;101244.22;5117419;28;20044;-66
2023/08/08 08:41:20;;;;;;;6.93;2.40;;;;;;;15.93;100.00;101243.41;5117784;28;20100;-66
2023/08/08 08:43:50;;;;;;;6.47;2.78;;;;;;;15.92;100.00;101247.25;5103858;28;20138;-66
2023/08/08 08:46:21;;;;;;;9.25;3.30;;;;;;;15.94;100.00;101245.84;5116206;28;20047;-66
2023/08/08 08:48:54;;;;;;;9.70;3.25;;;;;;;15.93;99.79;101243.41;5115970;28;20056;-66
2023/08/08 08:51:22;;;;;;;8.77;2.67;;;;;;;15.87;98.75;101256.38;5099441;28;20052;-66
2023/08/08 08:53:50;;;;;;;10.43;3.40;;;;;;;15.85;99.68;101244.03;5117766;28;20043;-66
2023/08/08 08:56:18;;;;;;;7.15;2.75;;;;;;;15.87;100.00;101250.06;5115867;28;20378;-66
2023/08/08 08:58:46;;;;;;;11.15;3.00;;;;;;;15.91;100.00;101242.88;5115765;28;20047;-66
2023/08/08 09:01:18;;;;;;;7.68;2.08;;;;;;;15.95;98.75;101247.50;5116210;28;20066;-66
2023/08/08 09:03:46;;;;;;;5.82;2.30;;;;;;;16.04;96.10;101246.81;5117267;28;20044;-67
2023/08/08 09:06:16;;;;;;;6.38;2.72;;;;;;;16.12;95.66;101249.75;5119210;28;20046;-66
2023/08/08 09:08:45;;;;;;;6.97;2.70;;;;;;;16.15;94.25;101256.59;5115553;28;20055;-66
2023/08/08 09:11:13;;;;;;;5.95;2.20;;;;;;;16.14;94.04;101255.78;5117695;28;20051;-66
2023/08/08 09:13:42;;;;;;;6.90;2.53;;;;;;;16.14;93.90;101250.28;5116249;28;20068;-66
2023/08/08 09:16:12;;;;;;;7.05;2.55;;;;;;;16.15;92.34;101246.41;5116061;28;20039;-66
2023/08/08 09:18:42;;;;;;;7.85;2.42;;;;;;;16.17;92.34;101249.69;5096449;28;20062;-66
2023/08/08 09:21:10;;;;;;;8.43;2.78;;;;;;;16.23;93.29;101253.16;5103755;28;20113;-66
2023/08/08 09:23:38;;;;;;;9.32;2.85;;;;;;;16.26;94.95;101238.84;5116656;28;20043;-67
2023/08/08 09:26:06;;;;;;;5.10;2.30;;;;;;;16.36;97.07;101244.19;5116058;28;20047;-66
2023/08/08 09:28:35;;;;;;;9.55;3.00;;;;;;;16.43;94.95;101241.09;5118566;28;20407;-65
2023/08/08 09:31:02;;;;;;;12.48;3.67;;;;;;;16.47;96.81;101238.53;5114424;28;20036;-66
2023/08/08 09:33:30;;;;;;;14.60;4.38;;;;;;;16.48;97.87;101243.75;5116230;28;20043;-66
2023/08/08 09:35:58;;;;;;;7.22;2.67;;;;;;;16.46;97.05;101237.72;5094977;28;20036;-66
2023/08/08 09:38:26;;;;;;;9.43;2.90;;;;;;;16.47;96.98;101253.09;5108014;28;20051;-66
2023/08/08 09:40:54;;;;;;;8.63;3.30;;;;;;;16.53;97.72;101251.94;5114014;28;20040;-66
2023/08/08 09:43:22;;;;;;;9.05;2.85;;;;;;;16.53;98.14;101251.13;5098651;28;20052;-67
2023/08/08 09:45:51;;;;;;;6.57;2.65;;;;;;;16.55;98.45;101260.72;5116733;28;20116;-66
2023/08/08 09:48:20;;;;;;;14.10;3.13;;;;;;;16.57;98.59;101255.72;5099829;28;20500;-67
2023/08/08 09:50:48;;;;;;;9.30;2.88;;;;;;;16.51;96.92;101259.66;5115417;28;20047;-67
2023/08/08 09:53:18;;;;;;;8.30;2.53;;;;;;;16.49;96.92;101259.13;5114982;28;20039;-66
2023/08/08 09:55:46;;;;;;;8.35;2.70;;;;;;;16.50;98.08;101263.53;5115548;28;20059;-68
2023/08/08 09:58:14;;;;;;;16.52;3.38;;;;;;;16.49;98.75;101261.06;5114338;28;20044;-67
2023/08/08 10:00:42;;;;;;;16.40;3.30;;;;;;;16.48;96.76;101271.25;5116294;28;20043;-67
2023/08/08 10:03:09;;;;;;;9.23;2.60;;;;;;;16.44;94.76;101264.72;5114586;28;20100;-66
2023/08/08 10:05:38;;;;;;;8.18;2.97;;;;;;;16.48;94.39;101259.44;5097810;28;20043;-67
2023/08/08 10:08:06;;;;;;;7.43;2.72;;;;;;;16.55;94.12;101254.41;5109294;28;20039;-65
2023/08/08 10:10:35;;;;;;;7.95;2.72;;;;;;;16.64;93.58;101254.53;5116343;28;20393;-66
2023/08/08 10:13:06;;;;;;;6.82;3.08;;;;;;;16.72;94.61;101251.13;5114558;28;20040;-65
2023/08/08 10:15:38;;;;;;;7.40;2.90;;;;;;;16.81;95.23;101257.56;5114842;28;20100;-67
2023/08/08 10:18:07;;;;;;;7.93;2.53;;;;;;;16.83;93.42;101258.09;5113581;28;20039;-66
2023/08/08 10:20:37;;;;;;;5.97;2.67;;;;;;;16.84;93.04;101268.00;5113930;28;20059;-67
2023/08/08 10:23:07;;;;;;;5.75;2.60;;;;;;;16.84;89.62;101262.50;5115131;28;20036;-66
2023/08/08 10:25:37;;;;;;;8.82;2.95;;;;;;;16.84;90.30;101262.50;5081091;28;20043;-67
2023/08/08 10:28:17;;;;;;;11.73;3.92;;;;;;;16.86;88.90;101257.53;5093224;28;20104;-67
2023/08/08 10:30:59;;;;;;;13.27;4.20;;;;;;;16.94;89.13;101256.81;5095067;28;20488;-66
2023/08/08 10:33:28;;;;;;;11.30;2.95;;;;;;;17.01;88.55;101257.25;5094040;28;20491;-67
2023/08/08 10:36:00;;;;;;;12.75;4.30;;;;;;;17.04;89.85;101267.66;5106720;28;20044;-65
2023/08/08 10:38:40;;;;;;;7.10;2.80;;;;;;;17.01;88.67;101260.03;5095923;28;20068;-69
2023/08/08 10:41:13;;;;;;;12.15;2.50;;;;;;;17.00;88.38;101265.81;4389095;28;10001431;-68
2023/08/08 10:43:52;;;;;;;6.85;2.30;;;;;;;17.04;90.47;101264.91;5091566;28;20048;-68
2023/08/08 10:46:31;;;;;;;6.38;3.10;;;;;;;17.11;87.93;101269.22;5103347;28;20047;-68
2023/08/08 10:49:01;;;;;;;7.75;2.50;;;;;;;17.16;86.51;101263.63;5092990;28;20051;-67
2023/08/08 10:51:45;;;;;;;5.55;2.30;;;;;;;17.20;87.69;101259.16;5110859;28;20048;-67
2023/08/08 10:54:28;;;;;;;6.47;2.70;;;;;;;17.25;87.74;101256.31;5110545;28;20479;-69
2023/08/08 10:56:58;;;;;;;8.05;3.25;;;;;;;17.29;87.86;101254.56;5104505;28;20059;-68
2023/08/08 10:59:29;;;;;;;11.02;3.45;;;;;;;17.35;88.90;101258.06;5110320;28;20044;-67
2023/08/08 11:01:57;;;;;;;9.85;3.67;;;;;;;17.36;87.23;101263.25;5110804;28;20103;-67
2023/08/08 11:04:26;;;;;;;9.85;3.30;;;;;;;17.36;87.47;101268.75;5092766;28;20105;-67
2023/08/08 11:06:54;;;;;;;15.77;4.07;;;;;;;17.36;87.36;101266.00;5109803;28;20180;-66
2023/08/08 11:09:26;;;;;;;7.60;3.35;;;;;;;17.38;85.84;101260.22;5109733;28;20051;-67
2023/08/08 11:11:54;;;;;;;9.32;2.50;;;;;;;17.36;86.32;101260.50;5111263;28;20055;-67
2023/08/08 11:14:23;;;;;;;6.70;2.78;;;;;;;17.35;87.12;101261.63;5109654;28;20083;-68
2023/08/08 11:16:51;;;;;;;11.55;3.67;;;;;;;17.36;89.51;101256.94;5110840;28;20051;-67
2023/08/08 11:19:20;;;;;;;7.63;2.53;;;;;;;17.36;88.74;101249.47;5110388;28;20055;-65
2023/08/08 11:21:48;;;;;;;7.70;2.45;;;;;;;17.39;88.02;101253.56;5078648;28;20048;-67